Bocayna Express — ECEA — position and weather

sailwx.info

Track history (hours):
 
Tides and Currents Weather Stations Pressure Air Temp Water Temp Dewpoint Dewpoint Depression Visibility Wind Speed Wind Dir Waves Ship Positions

Bocayna Express

Last reported at 2018-Feb-15 20:20 UTC. Time now 2018-Feb-25 22:07 UTC.
Position N 28°46' W 013°50'.
Warning: this ship's position is 10 days out of date.

Length 20 m; draft 2.2 m.

Type: High speed craft. MMSI: 224197000.

Date/timePositionNaut miles runAvg speedWind from/ knotsBaromVisibWave heightAir tempDewpointWater temp
2018-Feb-15 20:20N 28°46' W 013°50'6 9.6
2018-Feb-15 19:44N 28°52' W 013°50'0 0.0
2018-Feb-15 19:30N 28°52' W 013°50'0 0.0
2018-Feb-15 12:25N 28°52' W 013°50'6 3.1
2018-Feb-15 10:26N 28°46' W 013°51'614.3
2018-Feb-15 10:00N 28°52' W 013°50'2 1.4
2018-Feb-15 08:46N 28°50' W 013°50'2 6.7
2018-Feb-15 08:30N 28°52' W 013°50'5 5.8
2018-Feb-15 07:38N 28°47' W 013°51'325.0
2018-Feb-15 07:30N 28°50' W 013°50'1 2.2
2018-Feb-15 06:58N 28°51' W 013°50'6 0.5
2018-Feb-14 20:20N 28°45' W 013°51'0 0.0
2018-Feb-14 18:21N 28°45' W 013°51'6 6.6
2018-Feb-14 17:25N 28°52' W 013°50'6 6.0
2018-Feb-14 16:22N 28°45' W 013°51'617.2
2018-Feb-14 16:00N 28°52' W 013°50'0 0.0
2018-Feb-14 15:30N 28°52' W 013°50'2 1.2
2018-Feb-14 14:11N 28°50' W 013°50'2 8.7
2018-Feb-14 14:00N 28°52' W 013°50'0 0.0
2018-Feb-14 13:30N 28°52' W 013°50'0 0.0
2018-Feb-14 13:00N 28°52' W 013°50'0 0.3
2018-Feb-14 12:24N 28°52' W 013°50'6 3.1
2018-Feb-14 10:25N 28°45' W 013°51'6 3.3
2018-Feb-14 08:40N 28°51' W 013°50'  
Track history (hours):
 
Tides and Currents Weather Stations Pressure Air Temp Water Temp Dewpoint Dewpoint Depression Visibility Wind Speed Wind Dir Waves Ship Positions

Bocayna Express

Last reported at 2018-Feb-15 20:20 UTC. Time now 2018-Feb-25 22:07 UTC.
Position N 28°46' W 013°50'.
Warning: this ship's position is 10 days out of date.

Length 20 m; draft 2.2 m.

Type: High speed craft. MMSI: 224197000.

Date/timePositionNaut miles runAvg speedWind from/ knotsBaromVisibWave heightAir tempDewpointWater temp
2018-Feb-15 20:20N 28°46' W 013°50'6 9.6
2018-Feb-15 19:44N 28°52' W 013°50'0 0.0
2018-Feb-15 19:30N 28°52' W 013°50'0 0.0
2018-Feb-15 12:25N 28°52' W 013°50'6 3.1
2018-Feb-15 10:26N 28°46' W 013°51'614.3
2018-Feb-15 10:00N 28°52' W 013°50'2 1.4
2018-Feb-15 08:46N 28°50' W 013°50'2 6.7
2018-Feb-15 08:30N 28°52' W 013°50'5 5.8
2018-Feb-15 07:38N 28°47' W 013°51'325.0
2018-Feb-15 07:30N 28°50' W 013°50'1 2.2
2018-Feb-15 06:58N 28°51' W 013°50'6 0.5
2018-Feb-14 20:20N 28°45' W 013°51'0 0.0
2018-Feb-14 18:21N 28°45' W 013°51'6 6.6
2018-Feb-14 17:25N 28°52' W 013°50'6 6.0
2018-Feb-14 16:22N 28°45' W 013°51'617.2
2018-Feb-14 16:00N 28°52' W 013°50'0 0.0
2018-Feb-14 15:30N 28°52' W 013°50'2 1.2
2018-Feb-14 14:11N 28°50' W 013°50'2 8.7
2018-Feb-14 14:00N 28°52' W 013°50'0 0.0
2018-Feb-14 13:30N 28°52' W 013°50'0 0.0
2018-Feb-14 13:00N 28°52' W 013°50'0 0.3
2018-Feb-14 12:24N 28°52' W 013°50'6 3.1
2018-Feb-14 10:25N 28°45' W 013°51'6 3.3
2018-Feb-14 08:40N 28°51' W 013°50'  

Dump ship's entire track history